sensor_id;sensor_type;location;lat;lon;timestamp;P1;durP1;ratioP1;P2;durP2;ratioP2
37593;SDS011;23441;50.856;6.076;2023-02-20T00:00:18;21.10;;;12.70;;
37593;SDS011;23441;50.856;6.076;2023-02-20T00:02:46;21.98;;;12.57;;
37593;SDS011;23441;50.856;6.076;2023-02-20T00:05:12;25.73;;;13.55;;
37593;SDS011;23441;50.856;6.076;2023-02-20T00:07:38;24.85;;;13.63;;
37593;SDS011;23441;50.856;6.076;2023-02-20T00:10:04;22.38;;;13.00;;
37593;SDS011;23441;50.856;6.076;2023-02-20T00:12:30;22.13;;;11.95;;
37593;SDS011;23441;50.856;6.076;2023-02-20T00:14:57;23.02;;;13.35;;
37593;SDS011;23441;50.856;6.076;2023-02-20T00:17:22;20.80;;;12.55;;
37593;SDS011;23441;50.856;6.076;2023-02-20T00:19:48;22.67;;;13.00;;
37593;SDS011;23441;50.856;6.076;2023-02-20T00:22:14;21.63;;;12.40;;
37593;SDS011;23441;50.856;6.076;2023-02-20T00:24:39;22.98;;;12.80;;
37593;SDS011;23441;50.856;6.076;2023-02-20T00:27:06;28.33;;;13.32;;
37593;SDS011;23441;50.856;6.076;2023-02-20T00:29:31;20.42;;;12.07;;
37593;SDS011;23441;50.856;6.076;2023-02-20T00:31:57;25.90;;;14.07;;
37593;SDS011;23441;50.856;6.076;2023-02-20T00:34:25;26.02;;;13.73;;
37593;SDS011;23441;50.856;6.076;2023-02-20T00:36:52;26.77;;;13.35;;
37593;SDS011;23441;50.856;6.076;2023-02-20T00:39:18;29.50;;;13.75;;
37593;SDS011;23441;50.856;6.076;2023-02-20T00:41:44;28.35;;;14.30;;
37593;SDS011;23441;50.856;6.076;2023-02-20T00:44:09;25.73;;;13.88;;
37593;SDS011;23441;50.856;6.076;2023-02-20T00:46:35;28.38;;;14.50;;
37593;SDS011;23441;50.856;6.076;2023-02-20T00:49:01;31.35;;;15.23;;
37593;SDS011;23441;50.856;6.076;2023-02-20T00:51:27;31.17;;;15.57;;
37593;SDS011;23441;50.856;6.076;2023-02-20T00:53:53;35.40;;;16.65;;
37593;SDS011;23441;50.856;6.076;2023-02-20T00:56:18;31.38;;;15.95;;
37593;SDS011;23441;50.856;6.076;2023-02-20T00:58:44;31.15;;;14.65;;
37593;SDS011;23441;50.856;6.076;2023-02-20T01:01:10;28.60;;;14.32;;
37593;SDS011;23441;50.856;6.076;2023-02-20T01:03:35;29.25;;;15.02;;
37593;SDS011;23441;50.856;6.076;2023-02-20T01:06:01;32.40;;;15.65;;
37593;SDS011;23441;50.856;6.076;2023-02-20T01:08:26;26.10;;;13.80;;
37593;SDS011;23441;50.856;6.076;2023-02-20T01:10:52;32.25;;;15.38;;
37593;SDS011;23441;50.856;6.076;2023-02-20T01:13:18;30.25;;;15.55;;
37593;SDS011;23441;50.856;6.076;2023-02-20T01:15:43;28.90;;;15.32;;
37593;SDS011;23441;50.856;6.076;2023-02-20T01:18:09;31.48;;;15.52;;
37593;SDS011;23441;50.856;6.076;2023-02-20T01:20:35;29.98;;;15.68;;
37593;SDS011;23441;50.856;6.076;2023-02-20T01:23:01;31.80;;;15.20;;
37593;SDS011;23441;50.856;6.076;2023-02-20T01:25:26;29.15;;;14.48;;
37593;SDS011;23441;50.856;6.076;2023-02-20T01:27:52;33.13;;;15.68;;
37593;SDS011;23441;50.856;6.076;2023-02-20T01:30:18;35.38;;;14.23;;
37593;SDS011;23441;50.856;6.076;2023-02-20T01:32:43;30.13;;;14.95;;
37593;SDS011;23441;50.856;6.076;2023-02-20T01:35:09;27.50;;;14.05;;
37593;SDS011;23441;50.856;6.076;2023-02-20T01:37:34;34.72;;;15.15;;
37593;SDS011;23441;50.856;6.076;2023-02-20T01:40:00;25.80;;;13.10;;
37593;SDS011;23441;50.856;6.076;2023-02-20T01:42:27;28.05;;;12.80;;
37593;SDS011;23441;50.856;6.076;2023-02-20T01:45:10;27.77;;;13.65;;
37593;SDS011;23441;50.856;6.076;2023-02-20T01:48:02;20.98;;;11.20;;
37593;SDS011;23441;50.856;6.076;2023-02-20T01:50:32;34.75;;;14.20;;
37593;SDS011;23441;50.856;6.076;2023-02-20T01:53:05;33.00;;;12.82;;
37593;SDS011;23441;50.856;6.076;2023-02-20T01:55:43;25.52;;;12.45;;
37593;SDS011;23441;50.856;6.076;2023-02-20T02:00:41;24.95;;;12.52;;
37593;SDS011;23441;50.856;6.076;2023-02-20T02:03:08;23.20;;;12.30;;
37593;SDS011;23441;50.856;6.076;2023-02-20T02:05:41;25.52;;;12.15;;
37593;SDS011;23441;50.856;6.076;2023-02-20T02:08:10;21.83;;;11.45;;
37593;SDS011;23441;50.856;6.076;2023-02-20T02:10:55;21.95;;;11.02;;
37593;SDS011;23441;50.856;6.076;2023-02-20T02:13:27;26.52;;;11.63;;
37593;SDS011;23441;50.856;6.076;2023-02-20T02:26:45;21.65;;;9.63;;
37593;SDS011;23441;50.856;6.076;2023-02-20T02:29:50;19.20;;;9.57;;
37593;SDS011;23441;50.856;6.076;2023-02-20T02:40:37;16.52;;;9.20;;
37593;SDS011;23441;50.856;6.076;2023-02-20T02:46:07;16.90;;;8.45;;
37593;SDS011;23441;50.856;6.076;2023-02-20T02:48:57;17.85;;;9.02;;
37593;SDS011;23441;50.856;6.076;2023-02-20T02:51:32;16.00;;;8.77;;
37593;SDS011;23441;50.856;6.076;2023-02-20T02:54:12;18.40;;;9.63;;
37593;SDS011;23441;50.856;6.076;2023-02-20T02:56:45;14.80;;;8.02;;
37593;SDS011;23441;50.856;6.076;2023-02-20T02:59:24;14.63;;;8.07;;
37593;SDS011;23441;50.856;6.076;2023-02-20T03:01:58;21.08;;;8.70;;
37593;SDS011;23441;50.856;6.076;2023-02-20T03:04:27;13.35;;;6.93;;
37593;SDS011;23441;50.856;6.076;2023-02-20T03:06:58;20.67;;;8.68;;
37593;SDS011;23441;50.856;6.076;2023-02-20T03:09:27;21.65;;;7.72;;
37593;SDS011;23441;50.856;6.076;2023-02-20T03:11:56;15.48;;;7.00;;
37593;SDS011;23441;50.856;6.076;2023-02-20T03:14:30;15.50;;;6.95;;
37593;SDS011;23441;50.856;6.076;2023-02-20T03:20:08;12.25;;;6.35;;
37593;SDS011;23441;50.856;6.076;2023-02-20T03:22:38;12.13;;;6.60;;
37593;SDS011;23441;50.856;6.076;2023-02-20T03:25:22;14.23;;;6.43;;
37593;SDS011;23441;50.856;6.076;2023-02-20T03:33:10;16.63;;;6.10;;
37593;SDS011;23441;50.856;6.076;2023-02-20T03:36:30;13.82;;;5.68;;
37593;SDS011;23441;50.856;6.076;2023-02-20T03:39:29;18.45;;;7.22;;
37593;SDS011;23441;50.856;6.076;2023-02-20T03:42:19;17.30;;;5.72;;
37593;SDS011;23441;50.856;6.076;2023-02-20T03:45:06;11.52;;;5.43;;
37593;SDS011;23441;50.856;6.076;2023-02-20T03:47:35;13.15;;;5.95;;
37593;SDS011;23441;50.856;6.076;2023-02-20T03:50:04;11.98;;;5.35;;
37593;SDS011;23441;50.856;6.076;2023-02-20T03:52:32;15.95;;;5.57;;
37593;SDS011;23441;50.856;6.076;2023-02-20T03:54:58;11.23;;;5.07;;
37593;SDS011;23441;50.856;6.076;2023-02-20T03:57:25;17.52;;;6.13;;
37593;SDS011;23441;50.856;6.076;2023-02-20T04:00:01;11.13;;;5.40;;
37593;SDS011;23441;50.856;6.076;2023-02-20T04:02:30;11.55;;;4.78;;
37593;SDS011;23441;50.856;6.076;2023-02-20T04:05:17;13.95;;;5.15;;
37593;SDS011;23441;50.856;6.076;2023-02-20T04:07:56;13.85;;;5.40;;
37593;SDS011;23441;50.856;6.076;2023-02-20T04:10:30;12.13;;;4.88;;
37593;SDS011;23441;50.856;6.076;2023-02-20T04:13:01;9.85;;;5.95;;
37593;SDS011;23441;50.856;6.076;2023-02-20T04:15:29;11.52;;;5.13;;
37593;SDS011;23441;50.856;6.076;2023-02-20T04:18:07;16.13;;;5.88;;
37593;SDS011;23441;50.856;6.076;2023-02-20T04:20:35;12.30;;;5.20;;
37593;SDS011;23441;50.856;6.076;2023-02-20T04:23:03;12.30;;;4.93;;
37593;SDS011;23441;50.856;6.076;2023-02-20T04:28:23;14.75;;;4.88;;
37593;SDS011;23441;50.856;6.076;2023-02-20T04:30:50;11.88;;;4.68;;
37593;SDS011;23441;50.856;6.076;2023-02-20T04:33:16;8.88;;;4.22;;
37593;SDS011;23441;50.856;6.076;2023-02-20T04:35:43;11.80;;;4.75;;
37593;SDS011;23441;50.856;6.076;2023-02-20T04:38:09;10.75;;;5.05;;
37593;SDS011;23441;50.856;6.076;2023-02-20T04:40:35;15.68;;;4.68;;
37593;SDS011;23441;50.856;6.076;2023-02-20T04:43:01;10.68;;;4.47;;
37593;SDS011;23441;50.856;6.076;2023-02-20T04:45:27;12.52;;;4.30;;
37593;SDS011;23441;50.856;6.076;2023-02-20T04:47:53;8.13;;;3.50;;
37593;SDS011;23441;50.856;6.076;2023-02-20T04:50:26;12.98;;;4.15;;
37593;SDS011;23441;50.856;6.076;2023-02-20T04:52:56;11.98;;;4.32;;
37593;SDS011;23441;50.856;6.076;2023-02-20T04:55:23;10.00;;;4.60;;
37593;SDS011;23441;50.856;6.076;2023-02-20T04:57:49;19.45;;;4.85;;
37593;SDS011;23441;50.856;6.076;2023-02-20T05:00:18;11.48;;;4.45;;
37593;SDS011;23441;50.856;6.076;2023-02-20T05:02:45;12.90;;;4.22;;
37593;SDS011;23441;50.856;6.076;2023-02-20T05:05:18;16.38;;;6.43;;
37593;SDS011;23441;50.856;6.076;2023-02-20T05:07:44;11.93;;;4.57;;
37593;SDS011;23441;50.856;6.076;2023-02-20T05:10:14;16.25;;;4.45;;
37593;SDS011;23441;50.856;6.076;2023-02-20T05:12:42;11.95;;;5.00;;
37593;SDS011;23441;50.856;6.076;2023-02-20T05:15:08;10.18;;;4.43;;
37593;SDS011;23441;50.856;6.076;2023-02-20T05:17:34;9.90;;;4.68;;
37593;SDS011;23441;50.856;6.076;2023-02-20T05:20:00;9.15;;;4.10;;
37593;SDS011;23441;50.856;6.076;2023-02-20T05:22:26;12.98;;;4.20;;
37593;SDS011;23441;50.856;6.076;2023-02-20T05:24:52;12.98;;;4.57;;
37593;SDS011;23441;50.856;6.076;2023-02-20T05:27:18;11.70;;;4.95;;
37593;SDS011;23441;50.856;6.076;2023-02-20T05:29:46;14.07;;;5.07;;
37593;SDS011;23441;50.856;6.076;2023-02-20T05:32:13;13.68;;;5.03;;
37593;SDS011;23441;50.856;6.076;2023-02-20T05:34:40;11.07;;;5.07;;
37593;SDS011;23441;50.856;6.076;2023-02-20T05:37:06;9.68;;;4.28;;
37593;SDS011;23441;50.856;6.076;2023-02-20T05:39:32;9.98;;;5.55;;
37593;SDS011;23441;50.856;6.076;2023-02-20T05:41:58;10.18;;;4.85;;
37593;SDS011;23441;50.856;6.076;2023-02-20T05:44:23;10.55;;;4.45;;
37593;SDS011;23441;50.856;6.076;2023-02-20T05:46:49;11.07;;;4.93;;
37593;SDS011;23441;50.856;6.076;2023-02-20T05:49:16;13.95;;;5.10;;
37593;SDS011;23441;50.856;6.076;2023-02-20T05:51:42;11.50;;;4.45;;
37593;SDS011;23441;50.856;6.076;2023-02-20T05:54:08;11.38;;;5.13;;
37593;SDS011;23441;50.856;6.076;2023-02-20T05:56:33;12.55;;;4.53;;
37593;SDS011;23441;50.856;6.076;2023-02-20T05:59:00;14.02;;;5.03;;
37593;SDS011;23441;50.856;6.076;2023-02-20T06:01:28;10.48;;;4.70;;
37593;SDS011;23441;50.856;6.076;2023-02-20T06:03:54;13.63;;;6.07;;
37593;SDS011;23441;50.856;6.076;2023-02-20T06:06:20;13.40;;;5.22;;
37593;SDS011;23441;50.856;6.076;2023-02-20T06:08:46;9.85;;;5.10;;
37593;SDS011;23441;50.856;6.076;2023-02-20T06:11:12;14.13;;;6.40;;
37593;SDS011;23441;50.856;6.076;2023-02-20T06:13:39;12.50;;;5.68;;
37593;SDS011;23441;50.856;6.076;2023-02-20T06:16:09;17.67;;;5.85;;
37593;SDS011;23441;50.856;6.076;2023-02-20T06:18:37;15.18;;;6.10;;
37593;SDS011;23441;50.856;6.076;2023-02-20T06:21:05;20.13;;;6.50;;
37593;SDS011;23441;50.856;6.076;2023-02-20T06:23:37;12.50;;;5.68;;
37593;SDS011;23441;50.856;6.076;2023-02-20T06:26:03;17.02;;;6.30;;
37593;SDS011;23441;50.856;6.076;2023-02-20T06:28:30;10.73;;;5.97;;
37593;SDS011;23441;50.856;6.076;2023-02-20T06:30:57;11.13;;;5.97;;
37593;SDS011;23441;50.856;6.076;2023-02-20T06:33:22;11.90;;;6.57;;
37593;SDS011;23441;50.856;6.076;2023-02-20T06:35:48;17.63;;;6.00;;
37593;SDS011;23441;50.856;6.076;2023-02-20T06:38:13;14.98;;;7.40;;
37593;SDS011;23441;50.856;6.076;2023-02-20T06:40:39;11.95;;;6.68;;
37593;SDS011;23441;50.856;6.076;2023-02-20T06:43:05;13.48;;;7.70;;
37593;SDS011;23441;50.856;6.076;2023-02-20T06:45:30;11.63;;;6.85;;
37593;SDS011;23441;50.856;6.076;2023-02-20T06:47:56;13.63;;;7.28;;
37593;SDS011;23441;50.856;6.076;2023-02-20T06:50:22;19.00;;;8.20;;
37593;SDS011;23441;50.856;6.076;2023-02-20T06:52:47;18.77;;;7.88;;
37593;SDS011;23441;50.856;6.076;2023-02-20T06:55:13;14.15;;;7.75;;
37593;SDS011;23441;50.856;6.076;2023-02-20T06:57:39;14.52;;;7.47;;
37593;SDS011;23441;50.856;6.076;2023-02-20T07:00:05;17.52;;;7.75;;
37593;SDS011;23441;50.856;6.076;2023-02-20T07:02:31;16.40;;;8.10;;
37593;SDS011;23441;50.856;6.076;2023-02-20T07:04:57;22.05;;;8.70;;
37593;SDS011;23441;50.856;6.076;2023-02-20T07:07:22;15.57;;;7.90;;
37593;SDS011;23441;50.856;6.076;2023-02-20T07:09:48;14.73;;;8.55;;
37593;SDS011;23441;50.856;6.076;2023-02-20T07:12:13;16.80;;;9.05;;
37593;SDS011;23441;50.856;6.076;2023-02-20T07:14:39;17.58;;;8.00;;
37593;SDS011;23441;50.856;6.076;2023-02-20T07:17:05;15.85;;;7.78;;
37593;SDS011;23441;50.856;6.076;2023-02-20T07:19:30;22.30;;;10.02;;
37593;SDS011;23441;50.856;6.076;2023-02-20T07:21:56;13.80;;;7.97;;
37593;SDS011;23441;50.856;6.076;2023-02-20T07:24:21;19.80;;;8.68;;
37593;SDS011;23441;50.856;6.076;2023-02-20T07:26:47;17.77;;;8.70;;
37593;SDS011;23441;50.856;6.076;2023-02-20T07:29:13;20.98;;;8.20;;
37593;SDS011;23441;50.856;6.076;2023-02-20T07:31:38;18.33;;;8.63;;
37593;SDS011;23441;50.856;6.076;2023-02-20T07:34:04;16.35;;;8.60;;
37593;SDS011;23441;50.856;6.076;2023-02-20T07:36:30;16.60;;;8.20;;
37593;SDS011;23441;50.856;6.076;2023-02-20T07:38:56;18.48;;;9.10;;
37593;SDS011;23441;50.856;6.076;2023-02-20T07:41:24;16.73;;;8.35;;
37593;SDS011;23441;50.856;6.076;2023-02-20T07:43:54;16.58;;;8.88;;
37593;SDS011;23441;50.856;6.076;2023-02-20T07:46:19;17.45;;;9.57;;
37593;SDS011;23441;50.856;6.076;2023-02-20T07:48:45;18.67;;;9.75;;
37593;SDS011;23441;50.856;6.076;2023-02-20T07:51:11;16.17;;;8.93;;
37593;SDS011;23441;50.856;6.076;2023-02-20T07:53:37;22.77;;;10.07;;
37593;SDS011;23441;50.856;6.076;2023-02-20T07:56:03;17.73;;;9.55;;
37593;SDS011;23441;50.856;6.076;2023-02-20T07:58:29;20.50;;;10.18;;
37593;SDS011;23441;50.856;6.076;2023-02-20T08:00:55;19.50;;;10.52;;
37593;SDS011;23441;50.856;6.076;2023-02-20T08:03:21;21.90;;;11.43;;
37593;SDS011;23441;50.856;6.076;2023-02-20T08:05:46;25.83;;;10.85;;
37593;SDS011;23441;50.856;6.076;2023-02-20T08:08:12;26.20;;;11.90;;
37593;SDS011;23441;50.856;6.076;2023-02-20T08:10:38;23.50;;;11.75;;
37593;SDS011;23441;50.856;6.076;2023-02-20T08:13:03;30.83;;;11.57;;
37593;SDS011;23441;50.856;6.076;2023-02-20T08:15:29;25.38;;;12.50;;
37593;SDS011;23441;50.856;6.076;2023-02-20T08:17:55;18.63;;;11.85;;
37593;SDS011;23441;50.856;6.076;2023-02-20T08:20:21;22.02;;;12.20;;
37593;SDS011;23441;50.856;6.076;2023-02-20T08:22:47;22.27;;;12.45;;
37593;SDS011;23441;50.856;6.076;2023-02-20T08:25:15;25.38;;;12.48;;
37593;SDS011;23441;50.856;6.076;2023-02-20T08:27:46;23.45;;;12.43;;
37593;SDS011;23441;50.856;6.076;2023-02-20T08:30:14;23.63;;;11.85;;
37593;SDS011;23441;50.856;6.076;2023-02-20T08:32:42;20.80;;;12.52;;
37593;SDS011;23441;50.856;6.076;2023-02-20T08:35:08;17.75;;;10.00;;
37593;SDS011;23441;50.856;6.076;2023-02-20T08:37:33;16.27;;;10.07;;
37593;SDS011;23441;50.856;6.076;2023-02-20T08:39:59;16.13;;;9.85;;
37593;SDS011;23441;50.856;6.076;2023-02-20T08:42:30;21.15;;;9.35;;
37593;SDS011;23441;50.856;6.076;2023-02-20T08:44:56;20.95;;;10.88;;
37593;SDS011;23441;50.856;6.076;2023-02-20T08:47:22;19.60;;;10.90;;
37593;SDS011;23441;50.856;6.076;2023-02-20T08:49:47;16.75;;;10.27;;
37593;SDS011;23441;50.856;6.076;2023-02-20T08:52:13;22.38;;;10.68;;
37593;SDS011;23441;50.856;6.076;2023-02-20T08:54:39;20.60;;;11.35;;
37593;SDS011;23441;50.856;6.076;2023-02-20T08:57:09;22.10;;;11.18;;
37593;SDS011;23441;50.856;6.076;2023-02-20T08:59:34;21.48;;;11.55;;
37593;SDS011;23441;50.856;6.076;2023-02-20T09:02:02;21.80;;;11.57;;
37593;SDS011;23441;50.856;6.076;2023-02-20T09:04:28;22.30;;;11.85;;
37593;SDS011;23441;50.856;6.076;2023-02-20T09:06:53;20.58;;;11.90;;
37593;SDS011;23441;50.856;6.076;2023-02-20T09:09:19;23.27;;;12.50;;
37593;SDS011;23441;50.856;6.076;2023-02-20T09:11:44;22.88;;;12.40;;
37593;SDS011;23441;50.856;6.076;2023-02-20T09:14:10;21.05;;;12.48;;
37593;SDS011;23441;50.856;6.076;2023-02-20T09:16:36;20.45;;;13.18;;
37593;SDS011;23441;50.856;6.076;2023-02-20T09:19:05;23.73;;;12.55;;
37593;SDS011;23441;50.856;6.076;2023-02-20T09:21:34;27.17;;;13.80;;
37593;SDS011;23441;50.856;6.076;2023-02-20T09:24:00;26.73;;;12.32;;
37593;SDS011;23441;50.856;6.076;2023-02-20T09:26:26;21.92;;;11.23;;
37593;SDS011;23441;50.856;6.076;2023-02-20T09:28:51;20.38;;;12.70;;
37593;SDS011;23441;50.856;6.076;2023-02-20T09:31:17;28.23;;;13.77;;
37593;SDS011;23441;50.856;6.076;2023-02-20T09:33:43;21.15;;;12.40;;
37593;SDS011;23441;50.856;6.076;2023-02-20T09:36:10;22.58;;;13.13;;
37593;SDS011;23441;50.856;6.076;2023-02-20T09:38:35;27.75;;;13.35;;
37593;SDS011;23441;50.856;6.076;2023-02-20T09:41:01;29.23;;;13.50;;
37593;SDS011;23441;50.856;6.076;2023-02-20T09:46:23;27.00;;;14.90;;
37593;SDS011;23441;50.856;6.076;2023-02-20T09:51:27;24.33;;;13.80;;
37593;SDS011;23441;50.856;6.076;2023-02-20T09:56:40;25.52;;;15.20;;
37593;SDS011;23441;50.856;6.076;2023-02-20T09:59:14;27.60;;;14.32;;
37593;SDS011;23441;50.856;6.076;2023-02-20T10:01:52;33.35;;;14.98;;
37593;SDS011;23441;50.856;6.076;2023-02-20T10:04:24;26.10;;;14.27;;
37593;SDS011;23441;50.856;6.076;2023-02-20T10:06:56;28.58;;;15.35;;
37593;SDS011;23441;50.856;6.076;2023-02-20T10:09:28;23.05;;;13.60;;
37593;SDS011;23441;50.856;6.076;2023-02-20T10:11:59;25.42;;;14.63;;
37593;SDS011;23441;50.856;6.076;2023-02-20T10:17:49;30.23;;;13.65;;
37593;SDS011;23441;50.856;6.076;2023-02-20T10:23:33;31.90;;;15.57;;
37593;SDS011;23441;50.856;6.076;2023-02-20T10:26:06;27.35;;;14.25;;
37593;SDS011;23441;50.856;6.076;2023-02-20T10:28:38;29.33;;;15.48;;
37593;SDS011;23441;50.856;6.076;2023-02-20T10:33:40;27.58;;;15.57;;
37593;SDS011;23441;50.856;6.076;2023-02-20T10:36:15;30.27;;;16.52;;
37593;SDS011;23441;50.856;6.076;2023-02-20T10:52:09;27.65;;;14.40;;
37593;SDS011;23441;50.856;6.076;2023-02-20T10:54:46;26.13;;;14.80;;
37593;SDS011;23441;50.856;6.076;2023-02-20T11:00:19;28.15;;;14.45;;
37593;SDS011;23441;50.856;6.076;2023-02-20T11:02:58;26.88;;;15.20;;
37593;SDS011;23441;50.856;6.076;2023-02-20T11:05:31;28.23;;;13.57;;
37593;SDS011;23441;50.856;6.076;2023-02-20T11:08:00;30.20;;;14.85;;
37593;SDS011;23441;50.856;6.076;2023-02-20T11:10:26;26.30;;;14.10;;
37593;SDS011;23441;50.856;6.076;2023-02-20T11:12:55;28.42;;;14.75;;
37593;SDS011;23441;50.856;6.076;2023-02-20T11:15:24;31.55;;;15.68;;
37593;SDS011;23441;50.856;6.076;2023-02-20T11:17:55;30.08;;;16.20;;
37593;SDS011;23441;50.856;6.076;2023-02-20T11:23:02;28.60;;;15.82;;
37593;SDS011;23441;50.856;6.076;2023-02-20T11:28:17;29.63;;;16.27;;
37593;SDS011;23441;50.856;6.076;2023-02-20T11:30:41;27.48;;;15.80;;
37593;SDS011;23441;50.856;6.076;2023-02-20T11:33:18;24.15;;;15.35;;
37593;SDS011;23441;50.856;6.076;2023-02-20T11:35:47;32.17;;;15.38;;
37593;SDS011;23441;50.856;6.076;2023-02-20T11:41:32;33.63;;;15.68;;
37593;SDS011;23441;50.856;6.076;2023-02-20T11:43:36;32.08;;;16.88;;
37593;SDS011;23441;50.856;6.076;2023-02-20T11:48:36;31.13;;;15.50;;
37593;SDS011;23441;50.856;6.076;2023-02-20T11:51:02;28.13;;;13.70;;
37593;SDS011;23441;50.856;6.076;2023-02-20T11:53:29;28.73;;;15.05;;
37593;SDS011;23441;50.856;6.076;2023-02-20T11:58:34;25.95;;;14.43;;
37593;SDS011;23441;50.856;6.076;2023-02-20T12:01:00;30.73;;;15.82;;
37593;SDS011;23441;50.856;6.076;2023-02-20T12:03:27;32.42;;;16.42;;
37593;SDS011;23441;50.856;6.076;2023-02-20T12:05:56;35.60;;;15.55;;
37593;SDS011;23441;50.856;6.076;2023-02-20T12:08:28;29.73;;;15.65;;
37593;SDS011;23441;50.856;6.076;2023-02-20T12:10:56;29.00;;;15.05;;
37593;SDS011;23441;50.856;6.076;2023-02-20T12:13:26;36.90;;;16.23;;
37593;SDS011;23441;50.856;6.076;2023-02-20T12:16:05;29.10;;;15.18;;
37593;SDS011;23441;50.856;6.076;2023-02-20T12:18:52;29.58;;;15.65;;
37593;SDS011;23441;50.856;6.076;2023-02-20T12:24:14;29.77;;;13.68;;
37593;SDS011;23441;50.856;6.076;2023-02-20T12:27:22;28.80;;;16.15;;
37593;SDS011;23441;50.856;6.076;2023-02-20T12:30:32;27.95;;;15.30;;
37593;SDS011;23441;50.856;6.076;2023-02-20T12:33:28;27.42;;;14.70;;
37593;SDS011;23441;50.856;6.076;2023-02-20T12:41:47;28.20;;;14.73;;
37593;SDS011;23441;50.856;6.076;2023-02-20T12:47:18;30.20;;;15.57;;
37593;SDS011;23441;50.856;6.076;2023-02-20T12:49:57;31.65;;;16.65;;
37593;SDS011;23441;50.856;6.076;2023-02-20T12:56:15;28.48;;;13.23;;
37593;SDS011;23441;50.856;6.076;2023-02-20T13:01:22;26.20;;;14.98;;
37593;SDS011;23441;50.856;6.076;2023-02-20T13:03:51;29.80;;;15.25;;
37593;SDS011;23441;50.856;6.076;2023-02-20T13:06:26;29.30;;;14.23;;
37593;SDS011;23441;50.856;6.076;2023-02-20T13:09:03;28.83;;;14.63;;
37593;SDS011;23441;50.856;6.076;2023-02-20T13:11:38;32.40;;;15.35;;
37593;SDS011;23441;50.856;6.076;2023-02-20T13:21:47;28.58;;;13.77;;
37593;SDS011;23441;50.856;6.076;2023-02-20T13:29:16;27.85;;;15.70;;
37593;SDS011;23441;50.856;6.076;2023-02-20T13:31:58;35.33;;;16.48;;
37593;SDS011;23441;50.856;6.076;2023-02-20T13:34:27;30.88;;;15.88;;
37593;SDS011;23441;50.856;6.076;2023-02-20T13:37:00;28.35;;;16.08;;
37593;SDS011;23441;50.856;6.076;2023-02-20T13:42:00;28.08;;;15.52;;
37593;SDS011;23441;50.856;6.076;2023-02-20T13:44:49;28.60;;;13.98;;
37593;SDS011;23441;50.856;6.076;2023-02-20T13:54:53;23.42;;;13.70;;
37593;SDS011;23441;50.856;6.076;2023-02-20T13:57:21;24.30;;;13.27;;
37593;SDS011;23441;50.856;6.076;2023-02-20T13:59:51;26.75;;;12.95;;
37593;SDS011;23441;50.856;6.076;2023-02-20T14:02:19;20.67;;;13.30;;
37593;SDS011;23441;50.856;6.076;2023-02-20T14:04:52;22.80;;;13.15;;
37593;SDS011;23441;50.856;6.076;2023-02-20T14:07:30;29.23;;;14.23;;
37593;SDS011;23441;50.856;6.076;2023-02-20T14:10:44;26.08;;;14.20;;
37593;SDS011;23441;50.856;6.076;2023-02-20T14:13:03;21.73;;;13.73;;
37593;SDS011;23441;50.856;6.076;2023-02-20T14:18:17;26.15;;;14.30;;
37593;SDS011;23441;50.856;6.076;2023-02-20T14:21:06;24.00;;;14.40;;
37593;SDS011;23441;50.856;6.076;2023-02-20T14:23:33;18.83;;;12.48;;
37593;SDS011;23441;50.856;6.076;2023-02-20T14:26:03;21.10;;;12.30;;
37593;SDS011;23441;50.856;6.076;2023-02-20T14:28:34;20.08;;;12.63;;
37593;SDS011;23441;50.856;6.076;2023-02-20T14:31:04;24.85;;;13.82;;
37593;SDS011;23441;50.856;6.076;2023-02-20T14:34:34;23.90;;;13.90;;
37593;SDS011;23441;50.856;6.076;2023-02-20T14:39:55;23.23;;;13.63;;
37593;SDS011;23441;50.856;6.076;2023-02-20T14:42:33;27.83;;;17.38;;
37593;SDS011;23441;50.856;6.076;2023-02-20T14:45:06;22.70;;;14.60;;
37593;SDS011;23441;50.856;6.076;2023-02-20T14:50:25;28.65;;;14.68;;
37593;SDS011;23441;50.856;6.076;2023-02-20T14:53:26;20.42;;;14.20;;
37593;SDS011;23441;50.856;6.076;2023-02-20T14:55:45;25.58;;;14.95;;
37593;SDS011;23441;50.856;6.076;2023-02-20T14:58:14;24.27;;;13.93;;
37593;SDS011;23441;50.856;6.076;2023-02-20T15:00:42;20.98;;;13.63;;
37593;SDS011;23441;50.856;6.076;2023-02-20T15:03:18;22.83;;;12.85;;
37593;SDS011;23441;50.856;6.076;2023-02-20T15:05:45;23.70;;;12.35;;
37593;SDS011;23441;50.856;6.076;2023-02-20T15:10:47;23.90;;;13.07;;
37593;SDS011;23441;50.856;6.076;2023-02-20T15:13:15;20.15;;;11.48;;
37593;SDS011;23441;50.856;6.076;2023-02-20T15:15:44;17.60;;;11.65;;
37593;SDS011;23441;50.856;6.076;2023-02-20T15:18:15;20.08;;;11.15;;
37593;SDS011;23441;50.856;6.076;2023-02-20T15:21:01;17.42;;;11.18;;
37593;SDS011;23441;50.856;6.076;2023-02-20T15:23:29;21.73;;;11.82;;
37593;SDS011;23441;50.856;6.076;2023-02-20T15:25:57;20.50;;;11.63;;
37593;SDS011;23441;50.856;6.076;2023-02-20T15:33:40;22.10;;;12.23;;
37593;SDS011;23441;50.856;6.076;2023-02-20T15:36:11;19.80;;;11.05;;
37593;SDS011;23441;50.856;6.076;2023-02-20T15:38:39;19.90;;;10.57;;
37593;SDS011;23441;50.856;6.076;2023-02-20T15:41:05;18.38;;;10.43;;
37593;SDS011;23441;50.856;6.076;2023-02-20T15:43:31;18.13;;;10.80;;
37593;SDS011;23441;50.856;6.076;2023-02-20T15:45:57;16.73;;;11.10;;
37593;SDS011;23441;50.856;6.076;2023-02-20T15:48:23;16.25;;;9.90;;
37593;SDS011;23441;50.856;6.076;2023-02-20T15:50:49;14.90;;;9.20;;
37593;SDS011;23441;50.856;6.076;2023-02-20T15:53:28;19.17;;;10.25;;
37593;SDS011;23441;50.856;6.076;2023-02-20T15:55:55;14.30;;;9.57;;
37593;SDS011;23441;50.856;6.076;2023-02-20T16:01:00;16.85;;;9.90;;
37593;SDS011;23441;50.856;6.076;2023-02-20T16:03:27;18.15;;;9.18;;
37593;SDS011;23441;50.856;6.076;2023-02-20T16:05:53;19.48;;;9.48;;
37593;SDS011;23441;50.856;6.076;2023-02-20T16:08:20;17.95;;;9.02;;
37593;SDS011;23441;50.856;6.076;2023-02-20T16:10:47;13.70;;;8.20;;
37593;SDS011;23441;50.856;6.076;2023-02-20T16:16:05;12.80;;;8.57;;
37593;SDS011;23441;50.856;6.076;2023-02-20T16:18:51;18.50;;;7.97;;
37593;SDS011;23441;50.856;6.076;2023-02-20T16:21:19;9.73;;;7.45;;
37593;SDS011;23441;50.856;6.076;2023-02-20T16:23:46;14.88;;;9.32;;
37593;SDS011;23441;50.856;6.076;2023-02-20T16:26:13;12.70;;;8.18;;
37593;SDS011;23441;50.856;6.076;2023-02-20T16:28:49;13.38;;;7.97;;
37593;SDS011;23441;50.856;6.076;2023-02-20T16:31:21;14.13;;;8.02;;
37593;SDS011;23441;50.856;6.076;2023-02-20T16:34:33;14.73;;;8.43;;
37593;SDS011;23441;50.856;6.076;2023-02-20T16:37:01;12.55;;;7.90;;
37593;SDS011;23441;50.856;6.076;2023-02-20T16:39:27;15.18;;;9.13;;
37593;SDS011;23441;50.856;6.076;2023-02-20T16:41:56;12.70;;;7.95;;
37593;SDS011;23441;50.856;6.076;2023-02-20T16:44:36;14.45;;;8.32;;
37593;SDS011;23441;50.856;6.076;2023-02-20T16:47:13;14.57;;;8.43;;
37593;SDS011;23441;50.856;6.076;2023-02-20T16:49:40;17.27;;;8.73;;
37593;SDS011;23441;50.856;6.076;2023-02-20T16:52:12;16.13;;;8.52;;
37593;SDS011;23441;50.856;6.076;2023-02-20T16:54:45;12.50;;;7.75;;
37593;SDS011;23441;50.856;6.076;2023-02-20T16:57:13;12.07;;;8.00;;
37593;SDS011;23441;50.856;6.076;2023-02-20T16:59:40;13.02;;;8.45;;
37593;SDS011;23441;50.856;6.076;2023-02-20T17:02:05;16.55;;;7.82;;
37593;SDS011;23441;50.856;6.076;2023-02-20T17:04:31;13.27;;;8.95;;
37593;SDS011;23441;50.856;6.076;2023-02-20T17:06:57;17.73;;;8.63;;
37593;SDS011;23441;50.856;6.076;2023-02-20T17:09:23;18.15;;;9.27;;